sensor_id;sensor_type;location;lat;lon;timestamp;P1;durP1;ratioP1;P2;durP2;ratioP2
16922;SDS011;8578;50.938;13.556;2023-04-03T00:00:39;2.70;;;0.90;;
16922;SDS011;8578;50.938;13.556;2023-04-03T00:03:06;6.03;;;0.80;;
16922;SDS011;8578;50.938;13.556;2023-04-03T00:05:34;3.37;;;0.73;;
16922;SDS011;8578;50.938;13.556;2023-04-03T00:08:02;1.13;;;0.50;;
16922;SDS011;8578;50.938;13.556;2023-04-03T00:10:30;3.57;;;0.70;;
16922;SDS011;8578;50.938;13.556;2023-04-03T00:12:59;3.27;;;0.90;;
16922;SDS011;8578;50.938;13.556;2023-04-03T00:15:27;3.13;;;0.80;;
16922;SDS011;8578;50.938;13.556;2023-04-03T00:17:57;2.40;;;0.60;;
16922;SDS011;8578;50.938;13.556;2023-04-03T00:20:26;4.10;;;0.83;;
16922;SDS011;8578;50.938;13.556;2023-04-03T00:22:54;4.07;;;0.77;;
16922;SDS011;8578;50.938;13.556;2023-04-03T00:25:22;2.07;;;0.80;;
16922;SDS011;8578;50.938;13.556;2023-04-03T00:27:51;4.93;;;0.60;;
16922;SDS011;8578;50.938;13.556;2023-04-03T00:30:20;2.83;;;0.80;;
16922;SDS011;8578;50.938;13.556;2023-04-03T00:32:50;1.20;;;0.60;;
16922;SDS011;8578;50.938;13.556;2023-04-03T00:35:20;2.90;;;0.50;;
16922;SDS011;8578;50.938;13.556;2023-04-03T00:37:50;3.17;;;0.60;;
16922;SDS011;8578;50.938;13.556;2023-04-03T00:40:18;4.13;;;0.77;;
16922;SDS011;8578;50.938;13.556;2023-04-03T00:42:46;7.07;;;0.90;;
16922;SDS011;8578;50.938;13.556;2023-04-03T00:45:23;1.90;;;0.60;;
16922;SDS011;8578;50.938;13.556;2023-04-03T00:47:53;0.80;;;0.53;;
16922;SDS011;8578;50.938;13.556;2023-04-03T00:50:23;1.83;;;0.80;;
16922;SDS011;8578;50.938;13.556;2023-04-03T00:52:52;2.80;;;0.70;;
16922;SDS011;8578;50.938;13.556;2023-04-03T00:55:21;4.93;;;0.80;;
16922;SDS011;8578;50.938;13.556;2023-04-03T00:57:49;5.20;;;0.83;;
16922;SDS011;8578;50.938;13.556;2023-04-03T01:00:19;0.67;;;0.40;;
16922;SDS011;8578;50.938;13.556;2023-04-03T01:02:48;5.90;;;0.80;;
16922;SDS011;8578;50.938;13.556;2023-04-03T01:05:17;3.20;;;0.60;;
16922;SDS011;8578;50.938;13.556;2023-04-03T01:07:46;3.57;;;0.70;;
16922;SDS011;8578;50.938;13.556;2023-04-03T01:10:16;0.93;;;0.43;;
16922;SDS011;8578;50.938;13.556;2023-04-03T01:12:47;2.20;;;0.60;;
16922;SDS011;8578;50.938;13.556;2023-04-03T01:15:18;3.03;;;0.80;;
16922;SDS011;8578;50.938;13.556;2023-04-03T01:17:47;3.40;;;0.70;;
16922;SDS011;8578;50.938;13.556;2023-04-03T01:20:22;3.30;;;0.80;;
16922;SDS011;8578;50.938;13.556;2023-04-03T01:22:56;2.87;;;0.70;;
16922;SDS011;8578;50.938;13.556;2023-04-03T01:25:27;5.40;;;0.90;;
16922;SDS011;8578;50.938;13.556;2023-04-03T01:27:56;1.63;;;0.50;;
16922;SDS011;8578;50.938;13.556;2023-04-03T01:30:25;1.13;;;0.60;;
16922;SDS011;8578;50.938;13.556;2023-04-03T01:32:59;2.30;;;0.60;;
16922;SDS011;8578;50.938;13.556;2023-04-03T01:35:28;3.83;;;1.13;;
16922;SDS011;8578;50.938;13.556;2023-04-03T01:37:57;1.33;;;0.57;;
16922;SDS011;8578;50.938;13.556;2023-04-03T01:40:27;2.00;;;0.70;;
16922;SDS011;8578;50.938;13.556;2023-04-03T01:42:57;3.57;;;0.80;;
16922;SDS011;8578;50.938;13.556;2023-04-03T01:45:24;2.93;;;0.80;;
16922;SDS011;8578;50.938;13.556;2023-04-03T01:47:52;4.63;;;0.73;;
16922;SDS011;8578;50.938;13.556;2023-04-03T01:50:24;1.97;;;0.53;;
16922;SDS011;8578;50.938;13.556;2023-04-03T01:52:52;1.53;;;0.80;;
16922;SDS011;8578;50.938;13.556;2023-04-03T01:55:22;1.07;;;0.37;;
16922;SDS011;8578;50.938;13.556;2023-04-03T01:57:50;1.80;;;0.47;;
16922;SDS011;8578;50.938;13.556;2023-04-03T02:00:18;1.73;;;0.77;;
16922;SDS011;8578;50.938;13.556;2023-04-03T02:02:46;2.03;;;0.70;;
16922;SDS011;8578;50.938;13.556;2023-04-03T02:05:13;3.57;;;0.73;;
16922;SDS011;8578;50.938;13.556;2023-04-03T02:07:43;1.17;;;0.50;;
16922;SDS011;8578;50.938;13.556;2023-04-03T02:10:12;2.83;;;0.97;;
16922;SDS011;8578;50.938;13.556;2023-04-03T02:12:41;2.83;;;0.83;;
16922;SDS011;8578;50.938;13.556;2023-04-03T02:15:09;2.50;;;0.70;;
16922;SDS011;8578;50.938;13.556;2023-04-03T02:17:37;2.73;;;0.60;;
16922;SDS011;8578;50.938;13.556;2023-04-03T02:20:05;3.53;;;0.93;;
16922;SDS011;8578;50.938;13.556;2023-04-03T02:22:33;3.23;;;0.77;;
16922;SDS011;8578;50.938;13.556;2023-04-03T02:25:02;3.10;;;0.60;;
16922;SDS011;8578;50.938;13.556;2023-04-03T02:27:30;4.17;;;1.50;;
16922;SDS011;8578;50.938;13.556;2023-04-03T02:29:58;1.73;;;0.67;;
16922;SDS011;8578;50.938;13.556;2023-04-03T02:32:26;1.17;;;0.70;;
16922;SDS011;8578;50.938;13.556;2023-04-03T02:34:54;6.10;;;0.90;;
16922;SDS011;8578;50.938;13.556;2023-04-03T02:37:21;0.40;;;0.30;;
16922;SDS011;8578;50.938;13.556;2023-04-03T02:39:51;4.20;;;0.60;;
16922;SDS011;8578;50.938;13.556;2023-04-03T02:42:20;2.03;;;0.90;;
16922;SDS011;8578;50.938;13.556;2023-04-03T02:44:47;2.40;;;0.80;;
16922;SDS011;8578;50.938;13.556;2023-04-03T02:47:15;3.10;;;0.50;;
16922;SDS011;8578;50.938;13.556;2023-04-03T02:49:43;3.20;;;0.70;;
16922;SDS011;8578;50.938;13.556;2023-04-03T02:52:12;4.93;;;1.07;;
16922;SDS011;8578;50.938;13.556;2023-04-03T02:54:42;2.57;;;0.80;;
16922;SDS011;8578;50.938;13.556;2023-04-03T02:57:10;1.23;;;0.53;;
16922;SDS011;8578;50.938;13.556;2023-04-03T02:59:40;1.07;;;0.63;;
16922;SDS011;8578;50.938;13.556;2023-04-03T03:02:10;3.60;;;0.97;;
16922;SDS011;8578;50.938;13.556;2023-04-03T03:04:37;1.57;;;0.60;;
16922;SDS011;8578;50.938;13.556;2023-04-03T03:07:05;2.83;;;0.60;;
16922;SDS011;8578;50.938;13.556;2023-04-03T03:09:37;3.47;;;1.03;;
16922;SDS011;8578;50.938;13.556;2023-04-03T03:12:06;5.40;;;0.90;;
16922;SDS011;8578;50.938;13.556;2023-04-03T03:14:34;3.07;;;1.00;;
16922;SDS011;8578;50.938;13.556;2023-04-03T03:17:03;1.27;;;0.53;;
16922;SDS011;8578;50.938;13.556;2023-04-03T03:19:31;1.40;;;0.60;;
16922;SDS011;8578;50.938;13.556;2023-04-03T03:21:58;1.90;;;0.67;;
16922;SDS011;8578;50.938;13.556;2023-04-03T03:24:28;2.20;;;0.90;;
16922;SDS011;8578;50.938;13.556;2023-04-03T03:26:56;2.87;;;0.90;;
16922;SDS011;8578;50.938;13.556;2023-04-03T03:29:25;2.53;;;0.80;;
16922;SDS011;8578;50.938;13.556;2023-04-03T03:31:52;2.80;;;0.87;;
16922;SDS011;8578;50.938;13.556;2023-04-03T03:34:23;1.37;;;0.60;;
16922;SDS011;8578;50.938;13.556;2023-04-03T03:36:51;4.17;;;0.80;;
16922;SDS011;8578;50.938;13.556;2023-04-03T03:39:21;6.77;;;1.00;;
16922;SDS011;8578;50.938;13.556;2023-04-03T03:41:48;2.20;;;0.80;;
16922;SDS011;8578;50.938;13.556;2023-04-03T03:44:19;2.37;;;0.40;;
16922;SDS011;8578;50.938;13.556;2023-04-03T03:46:47;3.13;;;0.73;;
16922;SDS011;8578;50.938;13.556;2023-04-03T03:49:14;2.57;;;0.80;;
16922;SDS011;8578;50.938;13.556;2023-04-03T03:51:44;3.07;;;0.70;;
16922;SDS011;8578;50.938;13.556;2023-04-03T03:54:12;2.57;;;0.93;;
16922;SDS011;8578;50.938;13.556;2023-04-03T03:56:40;4.13;;;1.03;;
16922;SDS011;8578;50.938;13.556;2023-04-03T03:59:10;5.00;;;0.93;;
16922;SDS011;8578;50.938;13.556;2023-04-03T04:01:39;3.57;;;0.80;;
16922;SDS011;8578;50.938;13.556;2023-04-03T04:04:08;3.60;;;0.87;;
16922;SDS011;8578;50.938;13.556;2023-04-03T04:06:39;4.13;;;0.90;;
16922;SDS011;8578;50.938;13.556;2023-04-03T04:09:10;3.33;;;0.60;;
16922;SDS011;8578;50.938;13.556;2023-04-03T04:11:38;1.77;;;0.77;;
16922;SDS011;8578;50.938;13.556;2023-04-03T04:14:10;2.63;;;0.90;;
16922;SDS011;8578;50.938;13.556;2023-04-03T04:16:40;2.50;;;0.73;;
16922;SDS011;8578;50.938;13.556;2023-04-03T04:19:14;3.03;;;0.80;;
16922;SDS011;8578;50.938;13.556;2023-04-03T04:21:44;4.73;;;0.73;;
16922;SDS011;8578;50.938;13.556;2023-04-03T04:24:13;1.40;;;0.60;;
16922;SDS011;8578;50.938;13.556;2023-04-03T04:26:41;2.63;;;0.70;;
16922;SDS011;8578;50.938;13.556;2023-04-03T04:29:12;4.93;;;0.67;;
16922;SDS011;8578;50.938;13.556;2023-04-03T04:31:45;3.83;;;0.53;;
16922;SDS011;8578;50.938;13.556;2023-04-03T04:34:13;1.53;;;0.60;;
16922;SDS011;8578;50.938;13.556;2023-04-03T04:36:41;3.50;;;0.97;;
16922;SDS011;8578;50.938;13.556;2023-04-03T04:39:09;2.33;;;0.57;;
16922;SDS011;8578;50.938;13.556;2023-04-03T04:41:41;2.37;;;1.07;;
16922;SDS011;8578;50.938;13.556;2023-04-03T04:44:11;3.83;;;0.60;;
16922;SDS011;8578;50.938;13.556;2023-04-03T04:46:39;1.60;;;0.80;;
16922;SDS011;8578;50.938;13.556;2023-04-03T04:49:07;3.87;;;0.83;;
16922;SDS011;8578;50.938;13.556;2023-04-03T04:51:35;4.13;;;0.90;;
16922;SDS011;8578;50.938;13.556;2023-04-03T04:54:19;1.53;;;0.57;;
16922;SDS011;8578;50.938;13.556;2023-04-03T04:56:49;3.90;;;0.73;;
16922;SDS011;8578;50.938;13.556;2023-04-03T04:59:17;3.30;;;0.90;;
16922;SDS011;8578;50.938;13.556;2023-04-03T05:01:49;4.70;;;0.80;;
16922;SDS011;8578;50.938;13.556;2023-04-03T05:04:17;1.73;;;0.90;;
16922;SDS011;8578;50.938;13.556;2023-04-03T05:06:48;3.63;;;1.00;;
16922;SDS011;8578;50.938;13.556;2023-04-03T05:09:20;4.53;;;0.70;;
16922;SDS011;8578;50.938;13.556;2023-04-03T05:11:53;2.83;;;0.87;;
16922;SDS011;8578;50.938;13.556;2023-04-03T05:14:25;1.00;;;0.47;;
16922;SDS011;8578;50.938;13.556;2023-04-03T05:16:58;1.60;;;0.60;;
16922;SDS011;8578;50.938;13.556;2023-04-03T05:19:28;4.20;;;0.70;;
16922;SDS011;8578;50.938;13.556;2023-04-03T05:21:58;2.83;;;0.83;;
16922;SDS011;8578;50.938;13.556;2023-04-03T05:24:28;2.03;;;0.47;;
16922;SDS011;8578;50.938;13.556;2023-04-03T05:26:58;4.13;;;1.00;;
16922;SDS011;8578;50.938;13.556;2023-04-03T05:29:26;1.63;;;0.90;;
16922;SDS011;8578;50.938;13.556;2023-04-03T05:31:57;2.93;;;1.00;;
16922;SDS011;8578;50.938;13.556;2023-04-03T05:34:25;2.77;;;0.90;;
16922;SDS011;8578;50.938;13.556;2023-04-03T05:36:54;5.33;;;1.03;;
16922;SDS011;8578;50.938;13.556;2023-04-03T05:39:22;2.03;;;0.73;;
16922;SDS011;8578;50.938;13.556;2023-04-03T05:41:50;4.20;;;0.40;;
16922;SDS011;8578;50.938;13.556;2023-04-03T05:44:19;1.97;;;0.63;;
16922;SDS011;8578;50.938;13.556;2023-04-03T05:46:48;2.50;;;0.93;;
16922;SDS011;8578;50.938;13.556;2023-04-03T05:49:16;3.77;;;0.90;;
16922;SDS011;8578;50.938;13.556;2023-04-03T05:51:44;2.13;;;0.70;;
16922;SDS011;8578;50.938;13.556;2023-04-03T05:54:24;3.80;;;0.80;;
16922;SDS011;8578;50.938;13.556;2023-04-03T05:57:06;1.87;;;0.90;;
16922;SDS011;8578;50.938;13.556;2023-04-03T05:59:36;3.17;;;0.87;;
16922;SDS011;8578;50.938;13.556;2023-04-03T06:02:04;4.13;;;1.20;;
16922;SDS011;8578;50.938;13.556;2023-04-03T06:04:32;2.53;;;0.90;;
16922;SDS011;8578;50.938;13.556;2023-04-03T06:07:00;0.90;;;0.70;;
16922;SDS011;8578;50.938;13.556;2023-04-03T06:09:28;2.00;;;1.07;;
16922;SDS011;8578;50.938;13.556;2023-04-03T06:11:56;4.20;;;0.93;;
16922;SDS011;8578;50.938;13.556;2023-04-03T06:14:26;6.13;;;1.23;;
16922;SDS011;8578;50.938;13.556;2023-04-03T06:16:55;5.10;;;1.13;;
16922;SDS011;8578;50.938;13.556;2023-04-03T06:19:29;7.30;;;1.30;;
16922;SDS011;8578;50.938;13.556;2023-04-03T06:21:57;4.67;;;1.43;;
16922;SDS011;8578;50.938;13.556;2023-04-03T06:24:25;3.50;;;1.00;;
16922;SDS011;8578;50.938;13.556;2023-04-03T06:26:55;6.93;;;1.43;;
16922;SDS011;8578;50.938;13.556;2023-04-03T06:29:24;4.00;;;1.20;;
16922;SDS011;8578;50.938;13.556;2023-04-03T06:31:52;1.83;;;1.03;;
16922;SDS011;8578;50.938;13.556;2023-04-03T06:34:20;6.60;;;1.20;;
16922;SDS011;8578;50.938;13.556;2023-04-03T06:36:48;2.90;;;1.17;;
16922;SDS011;8578;50.938;13.556;2023-04-03T06:39:17;4.57;;;1.17;;
16922;SDS011;8578;50.938;13.556;2023-04-03T06:41:50;5.80;;;1.40;;
16922;SDS011;8578;50.938;13.556;2023-04-03T06:44:27;5.07;;;1.27;;
16922;SDS011;8578;50.938;13.556;2023-04-03T06:46:55;4.83;;;1.10;;
16922;SDS011;8578;50.938;13.556;2023-04-03T06:49:29;4.40;;;1.17;;
16922;SDS011;8578;50.938;13.556;2023-04-03T06:51:56;4.97;;;1.30;;
16922;SDS011;8578;50.938;13.556;2023-04-03T06:54:28;3.03;;;1.10;;
16922;SDS011;8578;50.938;13.556;2023-04-03T06:56:58;3.13;;;1.07;;
16922;SDS011;8578;50.938;13.556;2023-04-03T06:59:26;2.93;;;1.13;;
16922;SDS011;8578;50.938;13.556;2023-04-03T07:01:56;2.23;;;1.00;;
16922;SDS011;8578;50.938;13.556;2023-04-03T07:04:26;5.37;;;1.53;;
16922;SDS011;8578;50.938;13.556;2023-04-03T07:06:55;7.97;;;1.37;;
16922;SDS011;8578;50.938;13.556;2023-04-03T07:09:23;4.60;;;1.33;;
16922;SDS011;8578;50.938;13.556;2023-04-03T07:11:54;3.17;;;0.87;;
16922;SDS011;8578;50.938;13.556;2023-04-03T07:14:23;1.27;;;0.50;;
16922;SDS011;8578;50.938;13.556;2023-04-03T07:16:51;2.70;;;1.00;;
16922;SDS011;8578;50.938;13.556;2023-04-03T07:19:19;2.83;;;1.30;;
16922;SDS011;8578;50.938;13.556;2023-04-03T07:21:47;4.23;;;1.63;;
16922;SDS011;8578;50.938;13.556;2023-04-03T07:24:16;3.70;;;1.23;;
16922;SDS011;8578;50.938;13.556;2023-04-03T07:26:43;3.53;;;1.43;;
16922;SDS011;8578;50.938;13.556;2023-04-03T07:29:11;4.00;;;1.33;;
16922;SDS011;8578;50.938;13.556;2023-04-03T07:31:39;4.87;;;1.70;;
16922;SDS011;8578;50.938;13.556;2023-04-03T07:34:10;6.27;;;1.60;;
16922;SDS011;8578;50.938;13.556;2023-04-03T07:36:37;7.63;;;1.70;;
16922;SDS011;8578;50.938;13.556;2023-04-03T07:39:06;1.77;;;1.00;;
16922;SDS011;8578;50.938;13.556;2023-04-03T07:41:35;4.90;;;1.30;;
16922;SDS011;8578;50.938;13.556;2023-04-03T07:44:03;4.27;;;1.33;;
16922;SDS011;8578;50.938;13.556;2023-04-03T07:46:35;2.90;;;1.10;;
16922;SDS011;8578;50.938;13.556;2023-04-03T07:49:03;4.20;;;1.37;;
16922;SDS011;8578;50.938;13.556;2023-04-03T07:51:30;2.13;;;1.00;;
16922;SDS011;8578;50.938;13.556;2023-04-03T07:53:58;2.43;;;1.60;;
16922;SDS011;8578;50.938;13.556;2023-04-03T07:56:27;4.73;;;1.50;;
16922;SDS011;8578;50.938;13.556;2023-04-03T07:58:55;4.33;;;1.40;;
16922;SDS011;8578;50.938;13.556;2023-04-03T08:01:23;4.27;;;1.10;;
16922;SDS011;8578;50.938;13.556;2023-04-03T08:03:54;7.30;;;1.20;;
16922;SDS011;8578;50.938;13.556;2023-04-03T08:06:22;2.93;;;1.43;;
16922;SDS011;8578;50.938;13.556;2023-04-03T08:09:11;6.13;;;1.50;;
16922;SDS011;8578;50.938;13.556;2023-04-03T08:11:38;3.63;;;1.17;;
16922;SDS011;8578;50.938;13.556;2023-04-03T08:14:07;11.63;;;1.33;;
16922;SDS011;8578;50.938;13.556;2023-04-03T08:16:41;6.47;;;1.20;;
16922;SDS011;8578;50.938;13.556;2023-04-03T08:19:09;3.90;;;1.10;;
16922;SDS011;8578;50.938;13.556;2023-04-03T08:21:48;1.77;;;1.20;;
16922;SDS011;8578;50.938;13.556;2023-04-03T08:24:15;2.40;;;1.13;;
16922;SDS011;8578;50.938;13.556;2023-04-03T08:26:43;3.97;;;1.07;;
16922;SDS011;8578;50.938;13.556;2023-04-03T08:29:12;4.37;;;1.53;;
16922;SDS011;8578;50.938;13.556;2023-04-03T08:31:39;3.77;;;1.30;;
16922;SDS011;8578;50.938;13.556;2023-04-03T08:34:07;1.73;;;1.13;;
16922;SDS011;8578;50.938;13.556;2023-04-03T08:36:34;8.20;;;1.50;;
16922;SDS011;8578;50.938;13.556;2023-04-03T08:39:02;5.10;;;1.20;;
16922;SDS011;8578;50.938;13.556;2023-04-03T08:41:32;3.13;;;1.07;;
16922;SDS011;8578;50.938;13.556;2023-04-03T08:44:02;8.50;;;1.63;;
16922;SDS011;8578;50.938;13.556;2023-04-03T08:46:35;7.23;;;1.57;;
16922;SDS011;8578;50.938;13.556;2023-04-03T08:49:07;4.13;;;1.33;;
16922;SDS011;8578;50.938;13.556;2023-04-03T08:51:39;4.03;;;1.30;;
16922;SDS011;8578;50.938;13.556;2023-04-03T08:54:13;3.27;;;1.43;;
16922;SDS011;8578;50.938;13.556;2023-04-03T08:56:44;3.77;;;1.30;;
16922;SDS011;8578;50.938;13.556;2023-04-03T08:59:24;4.10;;;1.40;;
16922;SDS011;8578;50.938;13.556;2023-04-03T09:01:54;2.93;;;1.53;;
16922;SDS011;8578;50.938;13.556;2023-04-03T09:04:21;4.50;;;1.50;;
16922;SDS011;8578;50.938;13.556;2023-04-03T09:06:49;4.53;;;1.50;;
16922;SDS011;8578;50.938;13.556;2023-04-03T09:09:23;2.33;;;1.60;;
16922;SDS011;8578;50.938;13.556;2023-04-03T09:11:55;7.30;;;1.70;;
16922;SDS011;8578;50.938;13.556;2023-04-03T09:14:29;6.60;;;1.67;;
16922;SDS011;8578;50.938;13.556;2023-04-03T09:17:02;6.50;;;1.50;;
16922;SDS011;8578;50.938;13.556;2023-04-03T09:19:34;2.37;;;1.27;;
16922;SDS011;8578;50.938;13.556;2023-04-03T09:22:17;4.63;;;1.73;;
16922;SDS011;8578;50.938;13.556;2023-04-03T09:24:47;4.57;;;1.83;;
16922;SDS011;8578;50.938;13.556;2023-04-03T09:27:16;3.53;;;1.70;;
16922;SDS011;8578;50.938;13.556;2023-04-03T09:29:43;4.80;;;2.00;;
16922;SDS011;8578;50.938;13.556;2023-04-03T09:32:19;4.00;;;1.77;;
16922;SDS011;8578;50.938;13.556;2023-04-03T09:34:48;2.93;;;1.80;;
16922;SDS011;8578;50.938;13.556;2023-04-03T09:39:59;2.90;;;1.40;;
16922;SDS011;8578;50.938;13.556;2023-04-03T09:42:26;4.57;;;1.77;;
16922;SDS011;8578;50.938;13.556;2023-04-03T09:44:55;2.47;;;1.40;;
16922;SDS011;8578;50.938;13.556;2023-04-03T09:47:25;2.83;;;1.40;;
16922;SDS011;8578;50.938;13.556;2023-04-03T09:50:08;3.80;;;1.20;;
16922;SDS011;8578;50.938;13.556;2023-04-03T09:52:36;3.57;;;1.20;;
16922;SDS011;8578;50.938;13.556;2023-04-03T09:55:06;6.87;;;1.60;;
16922;SDS011;8578;50.938;13.556;2023-04-03T09:57:34;7.40;;;1.30;;
16922;SDS011;8578;50.938;13.556;2023-04-03T10:00:02;3.00;;;1.20;;
16922;SDS011;8578;50.938;13.556;2023-04-03T10:02:34;2.93;;;1.10;;
16922;SDS011;8578;50.938;13.556;2023-04-03T10:05:02;4.40;;;1.30;;
16922;SDS011;8578;50.938;13.556;2023-04-03T10:07:34;1.83;;;1.00;;
16922;SDS011;8578;50.938;13.556;2023-04-03T10:10:14;3.17;;;1.10;;
16922;SDS011;8578;50.938;13.556;2023-04-03T10:12:42;2.87;;;1.10;;
16922;SDS011;8578;50.938;13.556;2023-04-03T10:15:11;2.97;;;0.73;;
16922;SDS011;8578;50.938;13.556;2023-04-03T10:17:44;3.43;;;0.80;;
16922;SDS011;8578;50.938;13.556;2023-04-03T10:20:20;5.30;;;1.47;;
16922;SDS011;8578;50.938;13.556;2023-04-03T10:22:54;4.03;;;1.10;;
16922;SDS011;8578;50.938;13.556;2023-04-03T10:25:24;1.87;;;0.80;;
16922;SDS011;8578;50.938;13.556;2023-04-03T10:27:55;1.53;;;0.77;;
16922;SDS011;8578;50.938;13.556;2023-04-03T10:30:29;3.43;;;0.80;;
16922;SDS011;8578;50.938;13.556;2023-04-03T10:33:04;5.10;;;1.03;;
16922;SDS011;8578;50.938;13.556;2023-04-03T10:35:37;2.73;;;1.07;;
16922;SDS011;8578;50.938;13.556;2023-04-03T10:38:08;3.07;;;0.70;;
16922;SDS011;8578;50.938;13.556;2023-04-03T10:40:39;2.13;;;0.90;;
16922;SDS011;8578;50.938;13.556;2023-04-03T10:43:14;1.80;;;0.90;;
16922;SDS011;8578;50.938;13.556;2023-04-03T10:45:48;3.37;;;0.90;;
16922;SDS011;8578;50.938;13.556;2023-04-03T10:48:21;3.83;;;1.10;;
16922;SDS011;8578;50.938;13.556;2023-04-03T10:50:52;2.27;;;1.00;;
16922;SDS011;8578;50.938;13.556;2023-04-03T10:53:23;1.10;;;0.73;;
16922;SDS011;8578;50.938;13.556;2023-04-03T10:55:56;1.80;;;0.70;;
16922;SDS011;8578;50.938;13.556;2023-04-03T10:58:27;4.00;;;0.90;;
16922;SDS011;8578;50.938;13.556;2023-04-03T11:00:59;2.20;;;0.70;;
16922;SDS011;8578;50.938;13.556;2023-04-03T11:03:31;4.47;;;1.00;;
16922;SDS011;8578;50.938;13.556;2023-04-03T11:06:01;1.80;;;0.90;;
16922;SDS011;8578;50.938;13.556;2023-04-03T11:08:30;2.37;;;0.70;;
16922;SDS011;8578;50.938;13.556;2023-04-03T11:11:01;1.87;;;0.70;;
16922;SDS011;8578;50.938;13.556;2023-04-03T11:13:31;3.50;;;0.70;;
16922;SDS011;8578;50.938;13.556;2023-04-03T11:16:00;1.77;;;0.63;;
16922;SDS011;8578;50.938;13.556;2023-04-03T11:18:29;0.90;;;0.43;;
16922;SDS011;8578;50.938;13.556;2023-04-03T11:21:02;1.27;;;0.40;;
16922;SDS011;8578;50.938;13.556;2023-04-03T11:23:31;1.47;;;0.47;;
16922;SDS011;8578;50.938;13.556;2023-04-03T11:26:15;1.97;;;0.67;;
16922;SDS011;8578;50.938;13.556;2023-04-03T11:28:43;1.17;;;0.63;;
16922;SDS011;8578;50.938;13.556;2023-04-03T11:31:19;2.70;;;0.67;;
16922;SDS011;8578;50.938;13.556;2023-04-03T11:33:51;2.30;;;0.57;;
16922;SDS011;8578;50.938;13.556;2023-04-03T11:36:25;2.00;;;0.63;;
16922;SDS011;8578;50.938;13.556;2023-04-03T11:39:02;0.43;;;0.27;;
16922;SDS011;8578;50.938;13.556;2023-04-03T11:41:35;2.00;;;0.70;;
16922;SDS011;8578;50.938;13.556;2023-04-03T11:44:03;0.60;;;0.30;;
16922;SDS011;8578;50.938;13.556;2023-04-03T11:46:51;1.17;;;0.40;;
16922;SDS011;8578;50.938;13.556;2023-04-03T11:52:10;3.27;;;0.50;;
16922;SDS011;8578;50.938;13.556;2023-04-03T11:54:43;1.77;;;0.47;;
16922;SDS011;8578;50.938;13.556;2023-04-03T11:57:22;2.20;;;0.50;;
16922;SDS011;8578;50.938;13.556;2023-04-03T11:59:49;1.07;;;0.50;;
16922;SDS011;8578;50.938;13.556;2023-04-03T12:05:23;1.83;;;0.33;;
16922;SDS011;8578;50.938;13.556;2023-04-03T12:10:36;1.50;;;0.60;;
16922;SDS011;8578;50.938;13.556;2023-04-03T12:13:12;1.20;;;0.50;;
16922;SDS011;8578;50.938;13.556;2023-04-03T12:15:52;1.60;;;0.50;;
16922;SDS011;8578;50.938;13.556;2023-04-03T12:21:18;2.70;;;0.70;;
16922;SDS011;8578;50.938;13.556;2023-04-03T12:23:58;0.80;;;0.60;;
16922;SDS011;8578;50.938;13.556;2023-04-03T12:26:30;2.40;;;0.53;;
16922;SDS011;8578;50.938;13.556;2023-04-03T12:29:14;3.80;;;0.93;;
16922;SDS011;8578;50.938;13.556;2023-04-03T12:31:46;1.07;;;0.50;;
16922;SDS011;8578;50.938;13.556;2023-04-03T12:34:35;2.83;;;0.60;;
16922;SDS011;8578;50.938;13.556;2023-04-03T12:37:07;1.27;;;0.53;;
16922;SDS011;8578;50.938;13.556;2023-04-03T12:39:44;2.37;;;0.60;;
16922;SDS011;8578;50.938;13.556;2023-04-03T12:42:21;2.20;;;0.60;;
16922;SDS011;8578;50.938;13.556;2023-04-03T12:44:53;1.43;;;0.73;;
16922;SDS011;8578;50.938;13.556;2023-04-03T12:47:26;2.53;;;0.63;;
16922;SDS011;8578;50.938;13.556;2023-04-03T12:50:02;0.87;;;0.47;;
16922;SDS011;8578;50.938;13.556;2023-04-03T12:52:32;0.40;;;0.30;;
16922;SDS011;8578;50.938;13.556;2023-04-03T12:55:00;3.10;;;0.80;;
16922;SDS011;8578;50.938;13.556;2023-04-03T12:57:31;1.63;;;0.80;;
16922;SDS011;8578;50.938;13.556;2023-04-03T12:59:59;1.53;;;0.70;;
16922;SDS011;8578;50.938;13.556;2023-04-03T13:02:28;2.67;;;0.50;;
16922;SDS011;8578;50.938;13.556;2023-04-03T13:04:56;0.83;;;0.53;;
16922;SDS011;8578;50.938;13.556;2023-04-03T13:07:26;2.37;;;0.50;;
16922;SDS011;8578;50.938;13.556;2023-04-03T13:10:00;2.97;;;0.60;;
16922;SDS011;8578;50.938;13.556;2023-04-03T13:12:29;3.00;;;0.50;;
16922;SDS011;8578;50.938;13.556;2023-04-03T13:15:00;1.70;;;0.50;;
16922;SDS011;8578;50.938;13.556;2023-04-03T13:17:30;2.27;;;0.70;;
16922;SDS011;8578;50.938;13.556;2023-04-03T13:20:09;2.87;;;0.70;;
16922;SDS011;8578;50.938;13.556;2023-04-03T13:22:38;1.23;;;0.70;;
16922;SDS011;8578;50.938;13.556;2023-04-03T13:25:11;3.90;;;0.50;;
16922;SDS011;8578;50.938;13.556;2023-04-03T13:27:48;1.73;;;0.50;;
16922;SDS011;8578;50.938;13.556;2023-04-03T13:30:28;3.60;;;0.60;;
16922;SDS011;8578;50.938;13.556;2023-04-03T13:32:56;1.37;;;0.60;;
16922;SDS011;8578;50.938;13.556;2023-04-03T13:35:32;0.73;;;0.50;;
16922;SDS011;8578;50.938;13.556;2023-04-03T13:38:02;4.50;;;0.87;;
16922;SDS011;8578;50.938;13.556;2023-04-03T13:40:30;1.43;;;0.90;;
16922;SDS011;8578;50.938;13.556;2023-04-03T13:43:16;1.43;;;0.63;;
16922;SDS011;8578;50.938;13.556;2023-04-03T13:45:54;1.67;;;0.57;;
16922;SDS011;8578;50.938;13.556;2023-04-03T13:48:22;0.77;;;0.50;;
16922;SDS011;8578;50.938;13.556;2023-04-03T13:50:54;8.07;;;0.87;;
16922;SDS011;8578;50.938;13.556;2023-04-03T13:53:22;3.50;;;0.73;;
16922;SDS011;8578;50.938;13.556;2023-04-03T13:55:55;3.90;;;0.60;;
16922;SDS011;8578;50.938;13.556;2023-04-03T13:58:25;3.10;;;0.80;;
16922;SDS011;8578;50.938;13.556;2023-04-03T14:00:54;1.20;;;0.70;;
16922;SDS011;8578;50.938;13.556;2023-04-03T14:03:24;1.27;;;0.40;;
16922;SDS011;8578;50.938;13.556;2023-04-03T14:05:52;2.77;;;0.90;;
16922;SDS011;8578;50.938;13.556;2023-04-03T14:08:20;1.23;;;0.50;;
16922;SDS011;8578;50.938;13.556;2023-04-03T14:11:01;0.70;;;0.50;;
16922;SDS011;8578;50.938;13.556;2023-04-03T14:13:30;1.83;;;0.40;;
16922;SDS011;8578;50.938;13.556;2023-04-03T14:15:59;2.10;;;0.70;;
16922;SDS011;8578;50.938;13.556;2023-04-03T14:18:40;1.27;;;0.40;;
16922;SDS011;8578;50.938;13.556;2023-04-03T14:21:09;3.20;;;0.80;;
16922;SDS011;8578;50.938;13.556;2023-04-03T14:23:37;1.67;;;0.67;;
16922;SDS011;8578;50.938;13.556;2023-04-03T14:26:05;5.53;;;0.80;;
16922;SDS011;8578;50.938;13.556;2023-04-03T14:28:35;0.97;;;0.53;;
16922;SDS011;8578;50.938;13.556;2023-04-03T14:31:04;1.17;;;0.40;;
16922;SDS011;8578;50.938;13.556;2023-04-03T14:33:32;2.43;;;0.60;;
16922;SDS011;8578;50.938;13.556;2023-04-03T14:36:00;0.60;;;0.30;;
16922;SDS011;8578;50.938;13.556;2023-04-03T14:38:30;2.73;;;0.53;;
16922;SDS011;8578;50.938;13.556;2023-04-03T14:40:58;1.60;;;0.60;;
16922;SDS011;8578;50.938;13.556;2023-04-03T14:43:41;2.93;;;0.80;;
16922;SDS011;8578;50.938;13.556;2023-04-03T14:46:12;1.00;;;0.50;;
16922;SDS011;8578;50.938;13.556;2023-04-03T14:48:41;2.53;;;0.70;;
16922;SDS011;8578;50.938;13.556;2023-04-03T14:51:09;1.63;;;0.47;;
16922;SDS011;8578;50.938;13.556;2023-04-03T14:53:37;1.27;;;0.40;;
16922;SDS011;8578;50.938;13.556;2023-04-03T14:56:09;1.57;;;0.73;;
16922;SDS011;8578;50.938;13.556;2023-04-03T14:58:37;3.07;;;0.47;;
16922;SDS011;8578;50.938;13.556;2023-04-03T15:01:05;1.53;;;0.50;;
16922;SDS011;8578;50.938;13.556;2023-04-03T15:03:33;2.47;;;0.63;;
16922;SDS011;8578;50.938;13.556;2023-04-03T15:06:02;3.50;;;0.70;;
16922;SDS011;8578;50.938;13.556;2023-04-03T15:08:29;3.67;;;0.63;;
16922;SDS011;8578;50.938;13.556;2023-04-03T15:10:58;2.97;;;0.80;;
16922;SDS011;8578;50.938;13.556;2023-04-03T15:13:27;2.60;;;0.53;;
16922;SDS011;8578;50.938;13.556;2023-04-03T15:15:54;1.93;;;0.40;;
16922;SDS011;8578;50.938;13.556;2023-04-03T15:18:23;1.93;;;0.50;;
16922;SDS011;8578;50.938;13.556;2023-04-03T15:20:55;2.70;;;0.60;;